createdAt,value
2018-11-12T00:04:06.136Z,10.78
2018-11-12T00:09:08.791Z,10.78
2018-11-12T00:14:10.798Z,10.82
2018-11-12T00:19:12.779Z,10.70
2018-11-12T00:24:15.298Z,10.70
2018-11-12T00:29:17.319Z,10.67
2018-11-12T00:34:19.319Z,10.52
2018-11-12T00:39:22.095Z,10.68
2018-11-12T00:44:24.328Z,10.72
2018-11-12T00:49:26.390Z,10.59
2018-11-12T00:54:28.637Z,10.58
2018-11-12T00:59:30.661Z,10.59
2018-11-12T01:04:32.671Z,10.55
2018-11-12T01:09:34.700Z,10.53
2018-11-12T01:14:36.684Z,10.53
2018-11-12T01:19:38.661Z,10.35
2018-11-12T01:24:40.673Z,10.28
2018-11-12T01:29:42.666Z,10.18
2018-11-12T01:34:44.645Z,10.37
2018-11-12T01:39:46.842Z,10.63
2018-11-12T01:44:48.827Z,10.81
2018-11-12T01:49:51.043Z,10.55
2018-11-12T01:54:53.091Z,10.26
2018-11-12T01:59:55.074Z,10.10
2018-11-12T02:04:57.496Z,10.06
2018-11-12T02:09:59.636Z,9.68
2018-11-12T02:15:01.651Z,9.50
2018-11-12T02:20:04.838Z,9.83
2018-11-12T02:25:07.397Z,9.98
2018-11-12T02:30:11.092Z,9.96
2018-11-12T02:35:13.115Z,9.80
2018-11-12T02:40:16.115Z,9.74
2018-11-12T02:45:19.035Z,9.91
2018-11-12T02:50:21.004Z,9.93
2018-11-12T02:55:23.965Z,10.10
2018-11-12T03:00:25.946Z,10.03
2018-11-12T03:05:27.985Z,9.85
2018-11-12T03:10:31.042Z,9.82
2018-11-12T03:15:33.374Z,9.74
2018-11-12T03:20:35.357Z,9.72
2018-11-12T03:25:37.693Z,9.57
2018-11-12T03:30:39.677Z,9.67
2018-11-12T03:35:42.028Z,9.77
2018-11-12T03:40:44.155Z,9.83
2018-11-12T03:45:46.150Z,9.84
2018-11-12T03:50:48.605Z,9.85
2018-11-12T03:55:50.630Z,9.92
2018-11-12T04:00:52.678Z,9.96
2018-11-12T04:05:54.649Z,9.90
2018-11-12T04:10:56.646Z,9.70
2018-11-12T04:15:59.634Z,9.79
2018-11-12T04:21:01.599Z,9.97
2018-11-12T04:26:03.988Z,10.03
2018-11-12T04:31:05.979Z,9.98
2018-11-12T04:36:07.975Z,9.83
2018-11-12T04:41:10.042Z,9.89
2018-11-12T04:46:12.058Z,9.91
2018-11-12T04:51:14.056Z,10.07
2018-11-12T04:56:16.069Z,10.13
2018-11-12T05:01:18.113Z,10.16
2018-11-12T05:06:20.158Z,10.18
2018-11-12T05:11:22.609Z,10.31
2018-11-12T05:16:24.591Z,10.32
2018-11-12T05:21:26.727Z,10.21
2018-11-12T05:26:28.813Z,9.96
2018-11-12T05:31:31.111Z,9.74
2018-11-12T05:36:33.468Z,9.75
2018-11-12T05:41:35.477Z,9.55
2018-11-12T05:46:37.976Z,9.33
2018-11-12T05:51:40.013Z,9.43
2018-11-12T06:01:50.801Z,9.51
2018-11-12T06:06:52.828Z,9.62
2018-11-12T06:11:54.845Z,9.64
2018-11-12T06:16:56.847Z,9.83
2018-11-12T06:21:59.314Z,9.77
2018-11-12T06:27:02.823Z,9.89
2018-11-12T06:32:05.139Z,9.88
2018-11-12T06:37:07.141Z,10.03
2018-11-12T06:42:09.506Z,10.05
2018-11-12T06:47:11.519Z,10.20
2018-11-12T06:52:13.519Z,10.27
2018-11-12T06:57:15.529Z,10.37
2018-11-12T07:02:17.515Z,10.52
2018-11-12T07:07:19.820Z,10.66
2018-11-12T07:12:21.856Z,10.70
2018-11-12T07:17:40.223Z,10.77
2018-11-12T07:22:59.490Z,10.80
2018-11-12T07:28:01.684Z,10.76
2018-11-12T07:33:03.692Z,10.73
2018-11-12T07:38:05.777Z,10.83
2018-11-12T07:43:07.779Z,10.87
2018-11-12T07:48:10.488Z,11.01
2018-11-12T07:53:12.503Z,11.18
2018-11-12T07:58:14.510Z,11.34
2018-11-12T08:03:16.623Z,11.44
2018-11-12T08:08:18.851Z,11.44
2018-11-12T08:13:20.884Z,11.45
2018-11-12T08:18:22.858Z,11.54
2018-11-12T08:23:24.859Z,11.56
2018-11-12T08:28:26.858Z,11.61
2018-11-12T08:33:29.370Z,11.76
2018-11-12T08:38:31.427Z,12.00
2018-11-12T08:43:33.501Z,12.20
2018-11-12T08:48:35.588Z,12.36
2018-11-12T08:53:37.721Z,12.36
2018-11-12T08:58:40.040Z,12.47
2018-11-12T09:03:42.053Z,12.63
2018-11-12T09:08:44.087Z,12.73
2018-11-12T09:13:46.741Z,13.38
2018-11-12T09:18:48.774Z,14.47
2018-11-12T09:23:50.780Z,14.14
2018-11-12T09:28:53.031Z,13.97
2018-11-12T09:43:59.279Z,14.39
2018-11-12T09:49:01.344Z,15.38
2018-11-12T09:54:03.387Z,15.97
2018-11-12T09:59:05.614Z,16.68
2018-11-12T10:04:08.369Z,16.49
2018-11-12T10:09:13.764Z,16.72
2018-11-12T10:14:16.193Z,16.69
2018-11-12T10:19:15.722Z,16.71
2018-11-12T10:24:17.715Z,16.60
2018-11-12T10:29:19.710Z,16.77
2018-11-12T10:34:21.720Z,17.06
2018-11-12T10:39:23.907Z,17.46
2018-11-12T10:44:26.584Z,17.76
2018-11-12T10:49:28.611Z,18.11
2018-11-12T10:54:30.727Z,18.23
2018-11-12T10:59:32.715Z,18.89
2018-11-12T11:04:34.707Z,19.06
2018-11-12T11:09:36.730Z,19.03
2018-11-12T11:14:38.890Z,19.24
2018-11-12T11:19:40.921Z,19.41
2018-11-12T11:24:42.909Z,19.90
2018-11-12T11:29:44.934Z,20.09
2018-11-12T11:34:46.931Z,20.77
2018-11-12T11:39:48.924Z,20.86
2018-11-12T11:44:50.975Z,21.71
2018-11-12T11:49:52.971Z,21.18
2018-11-12T11:54:55.019Z,20.78
2018-11-12T11:59:56.986Z,21.48
2018-11-12T12:04:58.947Z,21.36
2018-11-12T12:10:00.968Z,21.68
2018-11-12T12:15:03.895Z,21.18
2018-11-12T12:20:08.595Z,20.03
2018-11-12T12:25:11.967Z,19.63
2018-11-12T12:30:19.875Z,19.47
2018-11-12T12:35:22.544Z,19.37
2018-11-12T12:45:39.635Z,19.08
2018-11-12T12:50:41.465Z,18.92
2018-11-12T12:55:43.628Z,18.86
2018-11-12T13:00:45.501Z,18.84
2018-11-12T13:05:47.497Z,18.93
2018-11-12T13:10:49.507Z,18.96
2018-11-12T13:15:51.622Z,19.02
2018-11-12T13:20:53.653Z,18.93
2018-11-12T13:25:55.642Z,18.92
2018-11-12T13:30:57.667Z,19.23
2018-11-12T13:36:00.152Z,20.53
2018-11-12T13:41:02.134Z,20.57
2018-11-12T13:46:05.125Z,20.19
2018-11-12T13:51:07.138Z,21.22
2018-11-12T13:56:09.145Z,20.71
2018-11-12T14:01:11.177Z,21.22
2018-11-12T14:06:13.182Z,21.54
2018-11-12T14:11:15.204Z,20.24
2018-11-12T14:16:17.707Z,19.56
2018-11-12T14:21:19.835Z,19.63
2018-11-12T14:26:21.719Z,19.71
2018-11-12T14:31:24.571Z,19.71
2018-11-12T14:36:33.413Z,19.63
2018-11-12T14:41:35.471Z,18.95
2018-11-12T14:46:37.771Z,18.87
2018-11-12T14:51:39.779Z,18.47
2018-11-12T14:56:41.750Z,18.35
2018-11-12T15:01:43.876Z,18.25
2018-11-12T15:06:45.818Z,17.93
2018-11-12T15:11:47.815Z,17.77
2018-11-12T15:16:49.838Z,17.63
2018-11-12T15:21:51.815Z,17.53
2018-11-12T15:26:53.855Z,17.32
2018-11-12T15:31:55.895Z,17.21
2018-11-12T15:36:58.202Z,17.05
2018-11-12T15:42:00.399Z,16.83
2018-11-12T15:47:02.682Z,16.69
2018-11-12T15:52:04.751Z,16.38
2018-11-12T15:57:06.921Z,16.08
2018-11-12T16:02:09.177Z,15.83
2018-11-12T16:07:11.179Z,15.64
2018-11-12T16:12:13.294Z,15.50
2018-11-12T16:17:15.419Z,15.41
2018-11-12T16:22:17.434Z,15.30
2018-11-12T16:27:19.470Z,15.35
2018-11-12T16:32:21.494Z,15.43
2018-11-12T16:37:23.740Z,15.54
2018-11-12T16:42:25.775Z,15.56
2018-11-12T16:47:27.991Z,15.56
2018-11-12T16:52:29.994Z,15.48
2018-11-12T16:57:32.002Z,15.57
2018-11-12T17:02:34.117Z,15.58
2018-11-12T17:07:36.115Z,15.36
2018-11-12T17:12:39.000Z,15.25
2018-11-12T17:17:41.327Z,15.23
2018-11-12T17:22:43.790Z,14.86
2018-11-12T17:27:46.269Z,14.87
2018-11-12T17:32:48.876Z,14.78
2018-11-12T17:37:51.035Z,14.74
2018-11-12T17:42:54.027Z,14.75
2018-11-12T17:47:57.264Z,14.72
2018-11-12T17:53:00.150Z,14.61
2018-11-12T17:58:02.194Z,14.44
2018-11-12T18:03:04.912Z,14.22
2018-11-12T18:08:07.480Z,14.07
2018-11-12T18:13:09.610Z,14.06
2018-11-12T18:18:11.597Z,13.99
2018-11-12T18:23:13.809Z,14.01
2018-11-12T18:28:15.999Z,14.05
2018-11-12T18:33:17.970Z,13.97
2018-11-12T18:38:20.111Z,13.90
2018-11-12T18:43:22.793Z,13.76
2018-11-12T18:48:25.068Z,13.81
2018-11-12T18:53:27.127Z,13.70
2018-11-12T18:58:29.457Z,13.52
2018-11-12T19:03:32.133Z,13.42
2018-11-12T19:08:34.546Z,13.50
2018-11-12T19:13:36.557Z,13.50
2018-11-12T19:18:38.761Z,13.54
2018-11-12T19:23:41.258Z,13.32
2018-11-12T19:28:43.381Z,13.25
2018-11-12T19:33:45.601Z,13.04
2018-11-12T19:38:47.573Z,12.88
2018-11-12T19:43:57.099Z,12.90
2018-11-12T19:48:59.506Z,12.99
2018-11-12T19:54:02.189Z,12.91
2018-11-12T19:59:04.362Z,12.78
2018-11-12T20:04:06.880Z,12.72
2018-11-12T20:09:09.466Z,12.76
2018-11-12T20:14:11.476Z,13.27
2018-11-12T20:19:13.571Z,13.52
2018-11-12T20:24:15.619Z,13.58
2018-11-12T20:29:17.595Z,13.68
2018-11-12T20:34:20.053Z,13.85
2018-11-12T20:39:22.106Z,13.82
2018-11-12T20:44:24.995Z,13.79
2018-11-12T20:49:27.120Z,13.74
2018-11-12T20:54:29.762Z,13.69
2018-11-12T20:59:32.110Z,13.68
2018-11-12T21:04:34.126Z,13.17
2018-11-12T21:09:36.179Z,12.86
2018-11-12T21:14:38.527Z,12.50
2018-11-12T21:19:41.026Z,12.39
2018-11-12T21:24:43.287Z,12.18
2018-11-12T21:29:45.479Z,12.10
2018-11-12T21:34:47.562Z,12.05
2018-11-12T21:39:49.558Z,12.06
2018-11-12T21:44:51.553Z,11.95
2018-11-12T21:49:54.469Z,11.94
2018-11-12T21:54:56.496Z,11.70
2018-11-12T21:59:58.488Z,11.54
2018-11-12T22:05:00.473Z,11.48
2018-11-12T22:10:02.493Z,11.44
2018-11-12T22:15:05.596Z,11.48
2018-11-12T22:20:09.361Z,11.57
2018-11-12T22:25:16.846Z,11.79
2018-11-12T22:30:20.055Z,11.83
2018-11-12T22:35:22.058Z,12.00
2018-11-12T22:40:24.051Z,12.07
2018-11-12T22:45:26.336Z,12.13
2018-11-12T22:50:28.369Z,12.23
2018-11-12T22:55:31.647Z,12.44
2018-11-12T23:00:37.635Z,12.36
2018-11-12T23:05:39.667Z,12.16
2018-11-12T23:10:42.242Z,12.15
2018-11-12T23:15:44.218Z,12.20
2018-11-12T23:20:46.261Z,12.22
2018-11-12T23:25:49.055Z,12.37
2018-11-12T23:30:51.586Z,12.60
2018-11-12T23:35:53.816Z,12.80
2018-11-12T23:40:55.753Z,12.93
2018-11-12T23:45:57.754Z,13.06
2018-11-12T23:50:59.811Z,13.21
2018-11-12T23:56:01.982Z,13.45
